Time;durP1;ratioP1;P1;durP2;ratioP2;P2;SDS_P1;SDS_P2;PMS_P1;PMS_P2;Temp;Humidity;BMP_temperature;BMP_pressure;BME280_temperature;BME280_humidity;BME280_pressure;Samples;Min_cycle;Max_cycle;Signal;HPM_P1;HPM_P2
2021/10/30 00:02:17;;;;;;;1.07;1.07;;;;;;;9.31;86.50;100682.34;5056331;28;20457;-72
2021/10/30 00:04:45;;;;;;;0.40;0.30;;;;;;;9.30;86.93;100681.53;5055832;28;20891;-72
2021/10/30 00:07:14;;;;;;;0.40;0.30;;;;;;;9.25;87.13;100684.31;5056154;28;20482;-73
2021/10/30 00:09:41;;;;;;;0.40;0.30;;;;;;;9.17;87.38;100682.25;5056193;28;20469;-73
2021/10/30 00:12:08;;;;;;;0.40;0.30;;;;;;;9.17;87.01;100682.25;5056172;28;20481;-72
2021/10/30 00:14:35;;;;;;;2.83;2.73;;;;;;;9.19;86.36;100671.94;5056100;28;20438;-72
2021/10/30 00:17:01;;;;;;;0.70;0.70;;;;;;;9.18;85.66;100680.34;5056001;28;20458;-72
2021/10/30 00:19:28;;;;;;;0.40;0.30;;;;;;;9.13;84.63;100672.31;5056017;28;20454;-72
2021/10/30 00:21:55;;;;;;;0.40;0.30;;;;;;;8.99;85.61;100666.78;5055669;28;20446;-72
2021/10/30 00:24:22;;;;;;;0.40;0.30;;;;;;;8.91;85.46;100668.22;5055574;28;20958;-72
2021/10/30 00:26:49;;;;;;;0.70;0.70;;;;;;;8.86;84.86;100675.59;5067369;28;20489;-72
2021/10/30 00:29:16;;;;;;;0.40;0.30;;;;;;;8.76;85.92;100671.88;5075851;28;20511;-72
2021/10/30 00:31:42;;;;;;;0.40;0.30;;;;;;;8.70;86.48;100675.72;5075712;28;20453;-72
2021/10/30 00:34:08;;;;;;;0.50;0.40;;;;;;;8.74;86.50;100667.88;5075400;28;20496;-72
2021/10/30 00:36:35;;;;;;;0.40;0.30;;;;;;;8.61;88.09;100658.56;5075151;28;20457;-72
2021/10/30 00:39:03;;;;;;;0.40;0.30;;;;;;;8.70;88.24;100664.94;5075669;28;20623;-72
2021/10/30 00:41:30;;;;;;;0.40;0.30;;;;;;;8.81;88.56;100671.06;5075594;28;20441;-72
2021/10/30 00:43:56;;;;;;;0.50;0.50;;;;;;;8.81;88.74;100677.25;5075574;28;20452;-72
2021/10/30 00:46:23;;;;;;;0.40;0.30;;;;;;;8.74;88.49;100665.97;5075404;28;20485;-72
2021/10/30 00:48:49;;;;;;;0.40;0.30;;;;;;;8.80;88.49;100669.41;5075534;28;20445;-72
2021/10/30 00:51:16;;;;;;;0.40;0.30;;;;;;;8.78;88.90;100672.41;5075468;28;20441;-72
2021/10/30 00:53:43;;;;;;;0.40;0.30;;;;;;;8.73;89.51;100669.78;5075610;28;20436;-72
2021/10/30 00:56:11;;;;;;;1.37;1.27;;;;;;;8.58;89.87;100668.00;5075274;28;20449;-72
2021/10/30 00:58:39;;;;;;;0.40;0.30;;;;;;;8.54;90.33;100658.06;5075336;28;20856;-72
2021/10/30 01:01:06;;;;;;;0.40;0.40;;;;;;;8.54;90.39;100666.16;5075312;28;20441;-72
2021/10/30 01:03:34;;;;;;;0.40;0.30;;;;;;;8.50;90.18;100665.13;5074692;28;20931;-72
2021/10/30 01:06:01;;;;;;;0.50;0.50;;;;;;;8.49;90.66;100655.44;5074890;28;20517;-72
2021/10/30 01:08:28;;;;;;;0.40;0.30;;;;;;;8.51;90.29;100656.75;5075111;28;20446;-71
2021/10/30 01:10:55;;;;;;;0.40;0.30;;;;;;;8.47;89.51;100649.53;5075116;28;20448;-71
2021/10/30 01:13:24;;;;;;;0.40;0.30;;;;;;;8.45;89.33;100646.28;5075086;28;20445;-71
2021/10/30 01:15:50;;;;;;;0.50;0.30;;;;;;;8.37;88.59;100645.03;5076387;28;20481;-71
2021/10/30 01:18:17;;;;;;;0.40;0.30;;;;;;;8.33;87.51;100649.34;5074900;28;20461;-71
2021/10/30 01:20:45;;;;;;;0.60;0.60;;;;;;;8.26;87.52;100652.38;5075116;28;20437;-71
2021/10/30 01:23:12;;;;;;;0.40;0.30;;;;;;;8.22;87.59;100647.81;5074852;28;20502;-72
2021/10/30 01:25:39;;;;;;;0.40;0.30;;;;;;;8.21;87.94;100646.22;5074530;28;20536;-72
2021/10/30 01:28:05;;;;;;;0.47;0.40;;;;;;;8.14;88.68;100641.13;5074577;28;20489;-72
2021/10/30 01:30:32;;;;;;;0.40;0.30;;;;;;;8.14;89.11;100635.75;5074716;28;20482;-72
2021/10/30 01:33:00;;;;;;;0.40;0.30;;;;;;;8.20;88.57;100636.53;5074615;28;20460;-71
2021/10/30 01:35:29;;;;;;;0.40;0.30;;;;;;;8.16;89.94;100643.56;5074580;28;20448;-71
2021/10/30 01:37:57;;;;;;;2.30;2.20;;;;;;;8.18;90.54;100636.00;5074450;28;20456;-71
2021/10/30 01:40:23;;;;;;;0.60;0.60;;;;;;;8.16;91.54;100636.28;5074428;28;20456;-71
2021/10/30 01:42:55;;;;;;;0.57;0.57;;;;;;;8.18;91.85;100626.00;5073844;28;20448;-71
2021/10/30 01:45:21;;;;;;;0.43;0.40;;;;;;;8.21;91.99;100625.44;5074384;28;20445;-71
2021/10/30 01:47:48;;;;;;;0.60;0.60;;;;;;;8.28;91.91;100627.81;5073482;28;20489;-71
2021/10/30 01:50:15;;;;;;;0.40;0.30;;;;;;;8.33;91.95;100636.66;5073974;28;20434;-71
2021/10/30 01:52:41;;;;;;;0.53;0.53;;;;;;;8.42;91.52;100628.78;5074232;28;20441;-71
2021/10/30 01:55:10;;;;;;;0.40;0.30;;;;;;;8.52;91.44;100633.28;5074230;28;20445;-71
2021/10/30 01:57:36;;;;;;;0.70;0.67;;;;;;;8.54;91.12;100628.38;5073713;28;20834;-71
2021/10/30 02:00:04;;;;;;;0.83;0.83;;;;;;;8.61;91.10;100631.56;5074091;28;20452;-71
2021/10/30 02:02:30;;;;;;;0.50;0.40;;;;;;;8.65;90.51;100640.69;5074129;28;20445;-72
2021/10/30 02:04:57;;;;;;;0.40;0.30;;;;;;;8.68;89.98;100632.03;5073592;28;20873;-73
2021/10/30 02:07:23;;;;;;;0.40;0.30;;;;;;;8.71;89.20;100631.44;5073762;28;20496;-72
2021/10/30 02:09:50;;;;;;;0.40;0.30;;;;;;;8.72;88.04;100627.66;5073915;28;20459;-71
2021/10/30 02:12:18;;;;;;;0.40;0.30;;;;;;;8.70;86.40;100627.13;5073976;28;20468;-72
2021/10/30 02:14:44;;;;;;;0.50;0.50;;;;;;;8.63;86.78;100631.25;5073813;28;20449;-73
2021/10/30 02:17:11;;;;;;;0.40;0.30;;;;;;;8.52;86.42;100620.56;5073666;28;20468;-73
2021/10/30 02:19:37;;;;;;;0.50;0.50;;;;;;;8.52;86.21;100620.56;5073767;28;20451;-73
2021/10/30 02:22:04;;;;;;;0.40;0.30;;;;;;;8.57;87.40;100627.81;5073702;28;20437;-73
2021/10/30 02:24:32;;;;;;;0.40;0.30;;;;;;;8.58;87.17;100624.00;5073613;28;20448;-73
2021/10/30 02:26:59;;;;;;;1.90;1.80;;;;;;;8.61;86.62;100636.16;5073479;28;20485;-73
2021/10/30 02:29:26;;;;;;;0.40;0.30;;;;;;;8.63;86.82;100632.06;5073592;28;20448;-72
2021/10/30 02:31:53;;;;;;;0.40;0.30;;;;;;;8.66;88.11;100628.78;5073519;28;20448;-73
2021/10/30 02:34:19;;;;;;;0.40;0.30;;;;;;;8.71;88.74;100628.72;5073502;28;20526;-73
2021/10/30 02:36:46;;;;;;;0.50;0.40;;;;;;;8.66;89.13;100625.28;5073132;28;21077;-73
2021/10/30 02:39:13;;;;;;;0.40;0.30;;;;;;;8.73;89.33;100618.47;5073163;28;20969;-73
2021/10/30 02:41:40;;;;;;;2.67;2.53;;;;;;;8.74;89.88;100620.06;5073426;28;20499;-73
2021/10/30 02:44:06;;;;;;;0.40;0.30;;;;;;;8.82;89.60;100626.72;5073372;28;20471;-73
2021/10/30 02:46:35;;;;;;;0.40;0.30;;;;;;;8.92;88.50;100617.69;5073155;28;20890;-73
2021/10/30 02:49:01;;;;;;;0.40;0.30;;;;;;;8.94;88.32;100627.13;5072994;28;20931;-73
2021/10/30 02:51:28;;;;;;;0.80;0.80;;;;;;;9.00;88.25;100631.38;5073302;28;20805;-73
2021/10/30 02:53:55;;;;;;;0.40;0.30;;;;;;;9.07;88.04;100631.00;5073263;28;20523;-73
2021/10/30 02:56:21;;;;;;;3.03;2.83;;;;;;;9.10;87.36;100628.53;5072888;28;20877;-73
2021/10/30 02:58:48;;;;;;;0.40;0.30;;;;;;;9.14;87.07;100631.47;5073178;28;20464;-73
2021/10/30 03:01:14;;;;;;;0.40;0.30;;;;;;;9.14;87.26;100633.38;5073145;28;20449;-73
2021/10/30 03:03:42;;;;;;;0.63;0.63;;;;;;;9.18;86.88;100632.50;5072806;28;20468;-73
2021/10/30 03:06:09;;;;;;;0.40;0.30;;;;;;;9.21;86.45;100636.50;5072871;28;20446;-73
2021/10/30 03:08:36;;;;;;;0.60;0.60;;;;;;;9.19;85.98;100642.19;5073088;28;20481;-73
2021/10/30 03:11:03;;;;;;;3.27;3.07;;;;;;;9.12;85.73;100647.19;5073137;28;20621;-73
2021/10/30 03:13:30;;;;;;;0.40;0.30;;;;;;;9.16;85.01;100650.09;5073055;28;20441;-73
2021/10/30 03:15:56;;;;;;;2.00;1.43;;;;;;;9.06;84.39;100641.00;5072938;28;20438;-73
2021/10/30 03:18:23;;;;;;;0.40;0.30;;;;;;;8.99;84.42;100642.47;5073030;28;20441;-73
2021/10/30 03:20:51;;;;;;;1.80;1.70;;;;;;;8.89;84.85;100632.56;5073008;28;20528;-73
2021/10/30 03:23:18;;;;;;;0.40;0.30;;;;;;;8.80;85.03;100629.69;5072721;28;20821;-73
2021/10/30 03:25:44;;;;;;;0.87;0.77;;;;;;;8.76;85.54;100630.56;5072939;28;20448;-73
2021/10/30 03:28:11;;;;;;;0.40;0.30;;;;;;;8.77;86.63;100632.19;5072816;28;20489;-73
2021/10/30 03:30:37;;;;;;;0.50;0.50;;;;;;;8.76;87.53;100625.16;5072906;28;20449;-73
2021/10/30 03:33:03;;;;;;;1.70;1.60;;;;;;;8.77;88.45;100630.31;5072896;28;20449;-73
2021/10/30 03:35:30;;;;;;;1.13;1.13;;;;;;;8.83;88.67;100629.13;5073002;28;20444;-73
2021/10/30 03:37:58;;;;;;;1.27;1.17;;;;;;;8.93;88.27;100619.31;5072738;28;20461;-73
2021/10/30 03:40:24;;;;;;;1.60;1.50;;;;;;;9.02;87.14;100625.66;5072776;28;20441;-73
2021/10/30 03:42:51;;;;;;;0.40;0.30;;;;;;;9.08;86.87;100629.94;5072849;28;20448;-73
2021/10/30 03:45:17;;;;;;;0.40;0.30;;;;;;;9.13;86.72;100635.28;5072762;28;20441;-73
2021/10/30 03:47:44;;;;;;;0.40;0.27;;;;;;;9.16;86.56;100634.66;5072657;28;20481;-72
2021/10/30 03:50:11;;;;;;;0.60;0.60;;;;;;;9.17;86.64;100636.31;5072716;28;20445;-71
2021/10/30 03:52:37;;;;;;;2.40;2.20;;;;;;;9.15;87.07;100638.47;5072757;28;20445;-71
2021/10/30 03:55:06;;;;;;;0.50;0.30;;;;;;;9.17;86.86;100639.00;5072685;28;20445;-71
2021/10/30 03:57:33;;;;;;;0.40;0.30;;;;;;;9.12;86.70;100647.19;5072578;28;20453;-71
2021/10/30 04:00:00;;;;;;;0.40;0.23;;;;;;;9.10;86.89;100638.53;5072591;28;20448;-71
2021/10/30 04:02:26;;;;;;;0.40;0.30;;;;;;;9.13;86.78;100640.69;5072616;28;20460;-71
2021/10/30 04:04:53;;;;;;;0.40;0.30;;;;;;;9.10;86.06;100635.84;5072240;28;20464;-71
2021/10/30 04:07:19;;;;;;;0.40;0.30;;;;;;;8.99;85.67;100634.38;5072450;28;20484;-71
2021/10/30 04:09:46;;;;;;;0.40;0.30;;;;;;;8.95;85.62;100641.44;5072551;28;20445;-71
2021/10/30 04:12:14;;;;;;;2.83;2.73;;;;;;;8.97;85.78;100641.94;5074468;28;20441;-71
2021/10/30 04:14:40;;;;;;;0.40;0.30;;;;;;;8.96;85.70;100634.94;5075815;28;20988;-71
2021/10/30 04:17:07;;;;;;;1.03;1.03;;;;;;;8.97;85.10;100636.53;5075986;28;20457;-71
2021/10/30 04:19:34;;;;;;;0.40;0.30;;;;;;;8.88;84.83;100636.38;5076093;28;20441;-71
2021/10/30 04:22:00;;;;;;;1.80;1.70;;;;;;;8.79;84.69;100635.41;5075954;28;20443;-71
2021/10/30 04:24:27;;;;;;;1.83;1.73;;;;;;;8.70;85.97;100629.81;5075921;28;20456;-71
2021/10/30 04:26:53;;;;;;;0.40;0.30;;;;;;;8.74;85.98;100622.75;5075851;28;20469;-71
2021/10/30 04:29:21;;;;;;;0.40;0.30;;;;;;;8.76;87.08;100628.66;5075925;28;20480;-71
2021/10/30 04:31:49;;;;;;;0.60;0.60;;;;;;;8.77;87.49;100622.19;5075886;28;20448;-71
2021/10/30 04:34:19;;;;;;;0.40;0.30;;;;;;;8.77;88.01;100622.19;5075477;28;20928;-71
2021/10/30 04:36:47;;;;;;;0.67;0.67;;;;;;;8.81;88.19;100636.75;5075637;28;20560;-71
2021/10/30 04:39:14;;;;;;;1.57;1.50;;;;;;;8.80;88.37;100627.00;5075690;28;20442;-71
2021/10/30 04:41:42;;;;;;;0.40;0.30;;;;;;;8.78;88.68;100634.59;5075661;28;20445;-71
2021/10/30 04:44:09;;;;;;;0.40;0.30;;;;;;;8.76;89.01;100620.56;5075274;28;20985;-72
2021/10/30 04:46:38;;;;;;;0.40;0.30;;;;;;;8.78;88.55;100607.59;5075472;28;20457;-72
2021/10/30 04:49:05;;;;;;;0.40;0.30;;;;;;;8.77;88.78;100614.09;5075421;28;20484;-72
2021/10/30 04:51:31;;;;;;;1.60;1.50;;;;;;;8.79;88.61;100613.78;5075494;28;20442;-72
2021/10/30 04:53:58;;;;;;;0.40;0.30;;;;;;;8.77;88.73;100610.59;5075442;28;20448;-72
2021/10/30 04:56:24;;;;;;;0.40;0.30;;;;;;;8.78;88.66;100613.00;5075017;28;20465;-72
2021/10/30 04:58:51;;;;;;;0.40;0.30;;;;;;;8.79;88.24;100606.50;5075018;28;20819;-72
2021/10/30 05:01:18;;;;;;;0.50;0.50;;;;;;;8.80;87.76;100605.41;5075266;28;20453;-72
2021/10/30 05:03:46;;;;;;;0.63;0.60;;;;;;;8.79;86.94;100605.69;5074882;28;20452;-73
2021/10/30 05:06:13;;;;;;;1.53;1.30;;;;;;;8.72;86.30;100597.97;5075234;28;20437;-73
2021/10/30 05:08:40;;;;;;;0.40;0.30;;;;;;;8.63;85.66;100594.25;5075090;28;20485;-73
2021/10/30 05:11:07;;;;;;;0.40;0.30;;;;;;;8.55;86.04;100593.00;5075072;28;20456;-74
2021/10/30 05:13:34;;;;;;;0.40;0.30;;;;;;;8.53;86.07;100595.19;5075052;28;20889;-73
2021/10/30 05:16:01;;;;;;;1.03;1.03;;;;;;;8.51;86.01;100580.38;5074917;28;20532;-73
2021/10/30 05:18:27;;;;;;;0.40;0.37;;;;;;;8.43;86.27;100584.50;5074640;28;20981;-73
2021/10/30 05:20:55;;;;;;;0.40;0.30;;;;;;;8.43;86.19;100594.50;5074849;28;20445;-73
2021/10/30 05:23:22;;;;;;;0.40;0.20;;;;;;;8.35;86.66;100585.91;5074869;28;20453;-73
2021/10/30 05:25:50;;;;;;;0.40;0.30;;;;;;;8.31;86.82;100587.56;5074767;28;20471;-74
2021/10/30 05:28:20;;;;;;;2.90;1.90;;;;;;;8.29;87.58;100595.16;5074634;28;20487;-74
2021/10/30 05:30:48;;;;;;;0.90;0.90;;;;;;;8.31;87.54;100597.53;5074777;28;20441;-73
2021/10/30 05:33:14;;;;;;;0.40;0.30;;;;;;;8.24;88.65;100586.31;5074775;28;20445;-74
2021/10/30 05:35:41;;;;;;;1.07;1.07;;;;;;;8.22;88.89;100588.47;5074393;28;20943;-74
2021/10/30 05:38:09;;;;;;;0.50;0.30;;;;;;;8.25;89.16;100588.72;5071787;28;20464;-74
2021/10/30 05:40:35;;;;;;;0.40;0.30;;;;;;;8.19;89.53;100589.84;5054342;28;20450;-74
2021/10/30 05:43:02;;;;;;;0.50;0.50;;;;;;;8.17;89.67;100591.22;5054416;28;20474;-74
2021/10/30 05:45:28;;;;;;;0.97;0.97;;;;;;;8.12;89.39;100588.56;5054512;28;20449;-72
2021/10/30 05:47:55;;;;;;;1.33;1.23;;;;;;;8.11;89.95;100589.66;5054260;28;20509;-72
2021/10/30 05:50:22;;;;;;;0.43;0.37;;;;;;;8.06;90.61;100595.91;5054315;28;20450;-72
2021/10/30 05:52:49;;;;;;;0.40;0.30;;;;;;;8.03;90.76;100588.38;5053991;28;20955;-72
2021/10/30 05:55:17;;;;;;;1.63;1.43;;;;;;;7.99;91.11;100579.25;5054212;28;20442;-73
2021/10/30 05:57:43;;;;;;;0.40;0.30;;;;;;;7.97;91.11;100581.41;5054161;28;20470;-70
2021/10/30 06:00:11;;;;;;;0.67;0.60;;;;;;;7.93;89.78;100581.19;5054137;28;20859;-69
2021/10/30 06:02:38;;;;;;;0.97;0.87;;;;;;;7.90;89.52;100580.94;5054080;28;20445;-72
2021/10/30 06:05:05;;;;;;;1.13;1.03;;;;;;;7.90;89.03;100589.03;5053664;28;20473;-71
2021/10/30 06:07:32;;;;;;;0.40;0.30;;;;;;;7.91;89.33;100582.56;5053940;28;20493;-71
2021/10/30 06:09:58;;;;;;;3.03;2.93;;;;;;;7.89;89.94;100580.16;5053864;28;20529;-70
2021/10/30 06:12:26;;;;;;;1.10;1.07;;;;;;;7.87;90.52;100585.00;5053930;28;20438;-70
2021/10/30 06:14:53;;;;;;;0.40;0.30;;;;;;;7.87;89.98;100584.19;5053824;28;20532;-71
2021/10/30 06:17:19;;;;;;;0.50;0.30;;;;;;;7.79;89.22;100586.44;5053796;28;20466;-70
2021/10/30 06:19:47;;;;;;;0.40;0.30;;;;;;;7.81;88.34;100586.94;5053509;28;20846;-72
2021/10/30 06:22:14;;;;;;;2.87;2.53;;;;;;;7.84;88.25;100593.69;5053442;28;21055;-72
2021/10/30 06:24:41;;;;;;;0.40;0.30;;;;;;;7.81;88.50;100595.03;5053510;28;20936;-72
2021/10/30 06:27:08;;;;;;;0.60;0.60;;;;;;;7.78;89.80;100592.88;5053547;28;20458;-72
2021/10/30 06:29:36;;;;;;;4.87;2.27;;;;;;;7.82;90.01;100598.53;5053234;28;20482;-71
2021/10/30 06:32:02;;;;;;;0.40;0.40;;;;;;;7.83;90.74;100597.44;5053538;28;20450;-72
2021/10/30 06:34:29;;;;;;;0.40;0.27;;;;;;;7.86;90.83;100596.06;5053154;28;20442;-71
2021/10/30 06:36:55;;;;;;;0.40;0.30;;;;;;;7.88;91.03;100599.28;5053106;28;21049;-71
2021/10/30 06:39:22;;;;;;;2.23;2.13;;;;;;;7.93;91.12;100607.34;5053358;28;20814;-71
2021/10/30 06:41:48;;;;;;;0.50;0.43;;;;;;;7.98;91.08;100607.31;5053162;28;20931;-71
2021/10/30 06:44:16;;;;;;;0.50;0.40;;;;;;;8.04;90.92;100598.06;5053388;28;20449;-71
2021/10/30 06:46:44;;;;;;;0.40;0.30;;;;;;;8.11;90.78;100592.38;5053352;28;20870;-71
2021/10/30 06:49:12;;;;;;;0.50;0.50;;;;;;;8.16;89.81;100582.31;5053237;28;20497;-71
2021/10/30 06:51:39;;;;;;;0.40;0.20;;;;;;;8.16;88.47;100582.31;5053295;28;20442;-71
2021/10/30 06:54:06;;;;;;;0.50;0.40;;;;;;;8.13;88.12;100584.78;5053275;28;20450;-70
2021/10/30 06:56:34;;;;;;;0.50;0.50;;;;;;;8.20;87.86;100577.97;5053170;28;20528;-72
2021/10/30 06:59:02;;;;;;;0.40;0.20;;;;;;;8.21;87.80;100581.47;5053173;28;20469;-71
2021/10/30 07:01:29;;;;;;;0.40;0.20;;;;;;;8.24;87.49;100579.00;5053175;28;20437;-71
2021/10/30 07:03:56;;;;;;;0.40;0.30;;;;;;;8.28;87.62;100582.75;5052894;28;20488;-71
2021/10/30 07:06:23;;;;;;;0.40;0.30;;;;;;;8.23;88.36;100582.78;5053044;28;20477;-71
2021/10/30 07:08:50;;;;;;;0.40;0.20;;;;;;;8.33;87.77;100585.38;5053021;28;20577;-72
2021/10/30 07:11:17;;;;;;;0.40;0.30;;;;;;;8.35;87.37;100585.09;5053139;28;20438;-71
2021/10/30 07:13:43;;;;;;;0.40;0.30;;;;;;;8.33;87.10;100585.38;5053103;28;20445;-70
2021/10/30 07:16:14;;;;;;;0.40;0.20;;;;;;;8.38;87.33;100578.38;5054325;28;20443;-72
2021/10/30 07:18:41;;;;;;;0.40;0.30;;;;;;;8.42;87.37;100582.09;5052744;28;20908;-69
2021/10/30 07:21:09;;;;;;;1.13;1.13;;;;;;;8.49;87.66;100577.94;5052660;28;20860;-70
2021/10/30 07:23:35;;;;;;;0.40;0.30;;;;;;;8.54;88.68;100579.78;5052970;28;20443;-70
2021/10/30 07:26:02;;;;;;;0.60;0.43;;;;;;;8.66;88.30;100579.38;5052886;28;20442;-70
2021/10/30 07:28:28;;;;;;;0.40;0.30;;;;;;;8.71;88.77;100582.81;5052839;28;20535;-70
2021/10/30 07:30:55;;;;;;;0.40;0.40;;;;;;;8.71;88.86;100590.94;5052838;28;20446;-70
2021/10/30 07:33:21;;;;;;;0.40;0.30;;;;;;;8.76;88.66;100585.47;5052907;28;20438;-70
2021/10/30 07:35:48;;;;;;;0.40;0.30;;;;;;;8.84;88.66;100584.81;5052880;28;20442;-69
2021/10/30 07:38:16;;;;;;;0.40;0.30;;;;;;;8.92;88.54;100583.38;5052779;28;20516;-69
2021/10/30 07:40:43;;;;;;;0.40;0.30;;;;;;;9.04;88.19;100580.28;5052826;28;20453;-69
2021/10/30 07:43:09;;;;;;;0.40;0.30;;;;;;;9.09;88.02;100589.09;5052738;28;20438;-69
2021/10/30 07:45:36;;;;;;;0.40;0.30;;;;;;;9.14;88.02;100590.94;5052810;28;20458;-69
2021/10/30 07:48:03;;;;;;;0.40;0.30;;;;;;;9.16;87.87;100582.53;5067020;28;20469;-69
2021/10/30 07:50:30;;;;;;;0.40;0.30;;;;;;;9.25;87.31;100580.78;5057032;28;20482;-69
2021/10/30 07:52:58;;;;;;;1.13;1.13;;;;;;;9.29;86.52;100579.09;5055807;28;20445;-69
2021/10/30 07:55:25;;;;;;;1.77;1.50;;;;;;;9.35;85.87;100583.34;5056327;28;20438;-69
2021/10/30 07:57:52;;;;;;;0.40;0.30;;;;;;;9.44;85.01;100580.78;5056224;28;20466;-69
2021/10/30 08:00:18;;;;;;;0.40;0.27;;;;;;;9.51;83.40;100578.50;5056339;28;20441;-69
2021/10/30 08:02:45;;;;;;;0.40;0.30;;;;;;;9.55;82.89;100577.63;5056419;28;20536;-69
2021/10/30 08:05:12;;;;;;;0.40;0.27;;;;;;;9.59;82.89;100584.06;5056200;28;20465;-69
2021/10/30 08:07:39;;;;;;;0.40;0.30;;;;;;;9.63;82.72;100581.56;5056389;28;20503;-69
2021/10/30 08:10:07;;;;;;;0.40;0.30;;;;;;;9.73;82.49;100572.47;5056257;28;20488;-69
2021/10/30 08:12:35;;;;;;;0.40;0.30;;;;;;;9.81;82.75;100569.91;5056224;28;20441;-70
2021/10/30 08:15:03;;;;;;;0.40;0.30;;;;;;;9.90;82.03;100564.63;5056147;28;20491;-70
2021/10/30 08:17:31;;;;;;;2.30;2.20;;;;;;;9.93;81.44;100565.94;5056113;28;20489;-68
2021/10/30 08:19:57;;;;;;;0.40;0.30;;;;;;;9.98;81.95;100573.97;5056030;28;20438;-69
2021/10/30 08:22:24;;;;;;;0.40;0.40;;;;;;;10.06;82.37;100565.16;5056055;28;20465;-69
2021/10/30 08:24:50;;;;;;;0.40;0.30;;;;;;;10.10;82.49;100552.66;5056005;28;20442;-69
2021/10/30 08:27:17;;;;;;;0.83;0.83;;;;;;;10.15;82.08;100541.72;5055860;28;20469;-69
2021/10/30 08:29:46;;;;;;;0.40;0.30;;;;;;;10.24;81.86;100544.53;5055825;28;20482;-69
2021/10/30 08:32:13;;;;;;;0.40;0.30;;;;;;;10.31;81.77;100540.38;5055633;28;20862;-69
2021/10/30 08:34:40;;;;;;;0.40;0.30;;;;;;;10.46;80.66;100538.47;5055860;28;20445;-69
2021/10/30 08:37:07;;;;;;;0.40;0.30;;;;;;;10.56;79.63;100538.25;5055724;28;20466;-69
2021/10/30 08:39:34;;;;;;;0.40;0.30;;;;;;;10.69;78.24;100532.03;5055680;28;20434;-69
2021/10/30 08:42:01;;;;;;;0.40;0.40;;;;;;;10.78;78.24;100530.19;5055644;28;20445;-69
2021/10/30 08:44:28;;;;;;;0.40;0.30;;;;;;;10.83;78.94;100529.28;5055702;28;20442;-70
2021/10/30 08:47:00;;;;;;;0.50;0.30;;;;;;;10.93;78.53;100528.25;5055553;28;20537;-69
2021/10/30 08:49:27;;;;;;;0.40;0.30;;;;;;;11.03;77.55;100530.78;5055243;28;20975;-69
2021/10/30 08:51:53;;;;;;;0.40;0.30;;;;;;;11.03;77.73;100518.00;5055515;28;20452;-72
2021/10/30 08:54:20;;;;;;;0.50;0.47;;;;;;;11.06;77.95;100517.38;5055487;28;20450;-69
2021/10/30 08:56:46;;;;;;;0.40;0.30;;;;;;;11.13;78.38;100505.34;5054828;28;21017;-69
2021/10/30 08:59:12;;;;;;;0.50;0.40;;;;;;;11.17;78.21;100509.03;5055283;28;20435;-69
2021/10/30 09:01:46;;;;;;;1.37;1.27;;;;;;;11.29;75.78;100503.88;5055035;28;20966;-69
2021/10/30 09:04:16;;;;;;;1.43;1.33;;;;;;;11.36;76.35;100502.31;5054784;28;21031;-70
2021/10/30 09:06:45;;;;;;;0.40;0.30;;;;;;;11.34;76.59;100504.56;5055142;28;20470;-69
2021/10/30 09:09:16;;;;;;;0.40;0.30;;;;;;;11.46;75.48;100500.47;5055149;28;20521;-70
2021/10/30 09:11:52;;;;;;;0.40;0.33;;;;;;;11.50;75.27;100485.19;5054775;28;20441;-70
2021/10/30 09:14:19;;;;;;;0.40;0.20;;;;;;;11.55;74.91;100482.34;5055140;28;20439;-70
2021/10/30 09:17:15;;;;;;;0.80;0.60;;;;;;;11.61;75.39;100481.13;5054937;28;20466;-70
2021/10/30 09:19:46;;;;;;;0.40;0.30;;;;;;;11.69;74.55;100480.38;5055022;28;20488;-70
2021/10/30 09:22:13;;;;;;;0.40;0.30;;;;;;;11.74;74.08;100477.50;5054948;28;20432;-70
2021/10/30 09:24:54;;;;;;;2.00;1.43;;;;;;;11.78;74.10;100475.00;5054930;28;20446;-69
2021/10/30 09:27:23;;;;;;;0.40;0.30;;;;;;;11.80;73.77;100473.53;5054766;28;20458;-70
2021/10/30 09:29:54;;;;;;;0.40;0.30;;;;;;;11.90;73.56;100469.00;5054640;28;20514;-70
2021/10/30 09:32:25;;;;;;;4.13;3.40;;;;;;;11.96;74.09;100460.41;5054609;28;20443;-70
2021/10/30 09:34:53;;;;;;;0.40;0.30;;;;;;;12.04;74.09;100456.94;5054624;28;20418;-70
2021/10/30 09:37:20;;;;;;;0.40;0.30;;;;;;;12.07;73.55;100452.78;5054451;28;20488;-70
2021/10/30 09:39:47;;;;;;;0.40;0.30;;;;;;;12.08;72.15;100466.03;5054466;28;20446;-69
2021/10/30 09:42:24;;;;;;;6.00;5.40;;;;;;;12.11;71.72;100454.53;5054404;28;20450;-70
2021/10/30 09:45:06;;;;;;;0.40;0.30;;;;;;;12.20;71.85;100453.78;5054490;28;20430;-69
2021/10/30 09:47:33;;;;;;;0.40;0.30;;;;;;;12.22;72.06;100443.38;5054243;28;20458;-70
2021/10/30 09:50:01;;;;;;;0.40;0.30;;;;;;;12.30;71.85;100437.97;5054160;28;20485;-70
2021/10/30 09:52:29;;;;;;;0.40;0.30;;;;;;;12.38;71.55;100445.34;5054308;28;20499;-70
2021/10/30 09:54:56;;;;;;;0.40;0.30;;;;;;;12.47;71.68;100437.22;5054086;28;20442;-70
2021/10/30 09:57:28;;;;;;;0.40;0.30;;;;;;;12.57;72.17;100449.69;5053705;28;21002;-70
2021/10/30 09:59:55;;;;;;;0.40;0.30;;;;;;;12.66;71.94;100442.38;5054065;28;20526;-70
2021/10/30 10:02:23;;;;;;;0.40;0.30;;;;;;;12.74;71.42;100432.63;5054039;28;20448;-69
2021/10/30 10:04:50;;;;;;;0.40;0.30;;;;;;;12.79;70.48;100419.69;5053420;28;20454;-70
2021/10/30 10:07:21;;;;;;;0.40;0.30;;;;;;;12.92;69.44;100420.63;5053821;28;20462;-71
2021/10/30 10:09:50;;;;;;;0.40;0.20;;;;;;;12.97;68.70;100428.63;5053088;28;20472;-71
2021/10/30 10:12:17;;;;;;;0.40;0.20;;;;;;;12.97;68.36;100419.66;5053883;28;20818;-72
2021/10/30 10:14:45;;;;;;;0.40;0.30;;;;;;;12.98;68.12;100416.63;5053924;28;20449;-69
2021/10/30 10:17:12;;;;;;;0.40;0.30;;;;;;;13.00;67.79;100419.81;5053459;28;20469;-70
2021/10/30 10:19:42;;;;;;;0.40;0.27;;;;;;;13.11;68.17;100420.31;5053620;28;20437;-71
2021/10/30 10:22:10;;;;;;;2.30;2.10;;;;;;;13.18;67.83;100426.03;5053793;28;20439;-71
2021/10/30 10:24:38;;;;;;;0.40;0.30;;;;;;;13.31;68.11;100419.66;5053780;28;20443;-70
2021/10/30 10:27:06;;;;;;;0.40;0.30;;;;;;;13.52;67.72;100413.53;5053570;28;20524;-70
2021/10/30 10:29:34;;;;;;;0.40;0.30;;;;;;;13.63;67.32;100412.03;5053515;28;20478;-70
2021/10/30 10:32:04;;;;;;;3.83;3.50;;;;;;;13.74;66.28;100413.28;5053514;28;20446;-70
2021/10/30 10:34:32;;;;;;;0.40;0.30;;;;;;;13.81;66.59;100413.59;5053536;28;20442;-70
2021/10/30 10:37:24;;;;;;;0.40;0.30;;;;;;;14.03;66.06;100411.69;5053346;28;20466;-70
2021/10/30 10:39:54;;;;;;;0.40;0.30;;;;;;;14.25;65.00;100408.69;5053452;28;20423;-70
2021/10/30 10:42:42;;;;;;;0.40;0.20;;;;;;;14.45;64.22;100406.34;5053497;28;20442;-70
2021/10/30 10:45:10;;;;;;;2.93;2.47;;;;;;;14.58;63.67;100394.41;5053289;28;20537;-70
2021/10/30 10:48:05;;;;;;;0.60;0.60;;;;;;;14.64;62.96;100382.16;5053223;28;20466;-72
2021/10/30 10:50:44;;;;;;;0.40;0.30;;;;;;;14.69;62.00;100378.44;5053039;28;20482;-69
2021/10/30 10:53:17;;;;;;;2.67;2.30;;;;;;;14.73;62.04;100377.44;5053105;28;20460;-68
2021/10/30 10:56:19;;;;;;;2.70;2.50;;;;;;;14.93;62.05;100377.75;5053059;28;20446;-68
2021/10/30 10:59:14;;;;;;;0.40;0.30;;;;;;;15.04;61.18;100352.44;5049357;28;20453;-72
2021/10/30 11:02:22;;;;;;;0.40;0.30;;;;;;;15.58;60.10;100343.31;5053078;28;20470;-70
2021/10/30 11:05:25;;;;;;;1.53;1.43;;;;;;;16.53;57.02;100335.72;5052906;28;20472;-71
2021/10/30 11:08:27;;;;;;;0.40;0.30;;;;;;;17.01;54.41;100328.47;5052892;28;20825;-70
2021/10/30 11:11:12;;;;;;;0.40;0.30;;;;;;;17.09;54.06;100339.25;5052743;28;20478;-70
2021/10/30 11:13:46;;;;;;;0.40;0.30;;;;;;;17.18;53.31;100333.63;5052901;28;20529;-70
2021/10/30 11:16:14;;;;;;;0.40;0.30;;;;;;;17.46;52.84;100335.47;5052890;28;20438;-70
2021/10/30 11:18:56;;;;;;;0.40;0.30;;;;;;;18.08;51.47;100333.84;5052806;28;20473;-71
2021/10/30 11:21:31;;;;;;;0.40;0.30;;;;;;;19.02;50.28;100331.84;5055491;28;20472;-71
2021/10/30 11:24:00;;;;;;;0.40;0.30;;;;;;;20.06;46.55;100339.88;5057029;28;20866;-71
2021/10/30 11:26:30;;;;;;;0.40;0.30;;;;;;;20.69;45.10;100339.13;5056820;28;20477;-70
2021/10/30 11:29:03;;;;;;;0.40;0.23;;;;;;;21.65;44.16;100342.06;5056934;28;20434;-70
2021/10/30 11:31:31;;;;;;;0.40;0.20;;;;;;;22.23;42.48;100341.28;5056645;28;20478;-70
2021/10/30 11:33:59;;;;;;;0.40;0.30;;;;;;;22.43;41.37;100341.75;5056714;28;20454;-71
2021/10/30 11:36:26;;;;;;;0.83;0.83;;;;;;;22.94;40.22;100343.56;5056612;28;20466;-71
2021/10/30 11:38:56;;;;;;;0.40;0.30;;;;;;;23.32;39.90;100339.25;5056755;28;20445;-70